Terminal Aerodrome Forecast
Issued by NWS Spokane, WA

Home | Current Version | Previous Version | Text Only | Print | Product List | Glossary On
Versions: 1 2 3 4 5 6 7 8 9 10 11 12 13 14 15 16
000
FTUS46 KOTX 300451 AAA
TAFEAT
TAF AMD
KEAT 300451Z 3005/3024 30014G20KT P6SM FEW150
     FM301900 30015G25KT P6SM FEW150=

USA.gov is the U.S. government's official web portal to all federal, state and local government web resources and services.